sensor_id;sensor_type;location;lat;lon;timestamp;pressure;altitude;pressure_sealevel;temperature;humidity
55550;BME280;41397;49.972;18.944;2022-11-06T00:01:46;102276.16;;;11.21;81.94
55550;BME280;41397;49.972;18.944;2022-11-06T00:04:47;102279.65;;;11.23;82.00
55550;BME280;41397;49.972;18.944;2022-11-06T00:07:51;102283.19;;;11.25;81.88
55550;BME280;41397;49.972;18.944;2022-11-06T00:10:53;102278.59;;;11.26;82.04
55550;BME280;41397;49.972;18.944;2022-11-06T00:13:54;102279.65;;;11.23;81.89
55550;BME280;41397;49.972;18.944;2022-11-06T00:16:55;102286.12;;;11.22;81.93
55550;BME280;41397;49.972;18.944;2022-11-06T00:19:59;102298.83;;;11.23;81.89
55550;BME280;41397;49.972;18.944;2022-11-06T00:23:00;102297.08;;;11.22;81.80
55550;BME280;41397;49.972;18.944;2022-11-06T00:26:12;102298.06;;;11.21;81.68
55550;BME280;41397;49.972;18.944;2022-11-06T00:29:14;102299.01;;;11.20;81.79
55550;BME280;41397;49.972;18.944;2022-11-06T00:32:15;102300.08;;;11.18;82.04
55550;BME280;41397;49.972;18.944;2022-11-06T00:35:16;102303.80;;;11.17;81.70
55550;BME280;41397;49.972;18.944;2022-11-06T00:38:17;102295.67;;;11.15;82.13
55550;BME280;41397;49.972;18.944;2022-11-06T00:41:19;102298.59;;;11.12;81.92
55550;BME280;41397;49.972;18.944;2022-11-06T00:44:20;102302.40;;;11.09;82.22
55550;BME280;41397;49.972;18.944;2022-11-06T00:47:22;102292.51;;;11.07;81.96
55550;BME280;41397;49.972;18.944;2022-11-06T00:50:23;102296.13;;;11.07;81.96
55550;BME280;41397;49.972;18.944;2022-11-06T00:53:26;102301.60;;;11.07;81.87
55550;BME280;41397;49.972;18.944;2022-11-06T00:56:29;102303.47;;;11.07;82.31
55550;BME280;41397;49.972;18.944;2022-11-06T00:59:30;102297.23;;;11.05;82.13
55550;BME280;41397;49.972;18.944;2022-11-06T01:02:31;102300.84;;;11.05;82.20
55550;BME280;41397;49.972;18.944;2022-11-06T01:05:33;102303.58;;;11.05;81.93
55550;BME280;41397;49.972;18.944;2022-11-06T01:08:35;102302.85;;;11.02;81.86
55550;BME280;41397;49.972;18.944;2022-11-06T01:11:39;102299.16;;;11.03;82.00
55550;BME280;41397;49.972;18.944;2022-11-06T01:14:42;102303.75;;;11.02;82.02
55550;BME280;41397;49.972;18.944;2022-11-06T01:17:43;102307.37;;;11.03;82.02
55550;BME280;41397;49.972;18.944;2022-11-06T01:20:44;102304.63;;;11.03;81.85
55550;BME280;41397;49.972;18.944;2022-11-06T01:23:50;102298.54;;;10.98;81.79
55550;BME280;41397;49.972;18.944;2022-11-06T01:26:52;102302.42;;;10.94;81.44
55550;BME280;41397;49.972;18.944;2022-11-06T01:29:54;102298.19;;;10.88;82.07
55550;BME280;41397;49.972;18.944;2022-11-06T01:32:56;102300.06;;;10.87;82.16
55550;BME280;41397;49.972;18.944;2022-11-06T01:35:58;102294.58;;;10.87;81.89
55550;BME280;41397;49.972;18.944;2022-11-06T01:39:02;102288.23;;;10.87;81.95
55550;BME280;41397;49.972;18.944;2022-11-06T01:42:03;102292.03;;;10.84;81.92
55550;BME280;41397;49.972;18.944;2022-11-06T01:48:22;102296.01;;;10.79;81.75
55550;BME280;41397;49.972;18.944;2022-11-06T01:51:26;102293.34;;;10.77;81.84
55550;BME280;41397;49.972;18.944;2022-11-06T01:54:30;102292.59;;;10.75;82.10
55550;BME280;41397;49.972;18.944;2022-11-06T01:57:34;102292.59;;;10.75;82.10
55550;BME280;41397;49.972;18.944;2022-11-06T02:00:35;102288.05;;;10.74;82.13
55550;BME280;41397;49.972;18.944;2022-11-06T02:03:38;102296.27;;;10.74;82.04
55550;BME280;41397;49.972;18.944;2022-11-06T02:06:44;102296.09;;;10.77;82.03
55550;BME280;41397;49.972;18.944;2022-11-06T02:09:45;102294.16;;;10.79;82.05
55550;BME280;41397;49.972;18.944;2022-11-06T02:29:18;102312.18;;;10.68;81.95
55550;BME280;41397;49.972;18.944;2022-11-06T02:35:38;102306.09;;;10.62;82.40
55550;BME280;41397;49.972;18.944;2022-11-06T02:38:48;102299.82;;;10.60;82.17
55550;BME280;41397;49.972;18.944;2022-11-06T02:41:52;102304.59;;;10.57;82.42
55550;BME280;41397;49.972;18.944;2022-11-06T02:44:57;102316.34;;;10.59;82.37
55550;BME280;41397;49.972;18.944;2022-11-06T02:48:02;102326.30;;;10.60;82.12
55550;BME280;41397;49.972;18.944;2022-11-06T02:51:09;102328.95;;;10.61;82.16
55550;BME280;41397;49.972;18.944;2022-11-06T02:54:13;102316.23;;;10.60;82.26
55550;BME280;41397;49.972;18.944;2022-11-06T02:57:17;102323.56;;;10.60;81.95
55550;BME280;41397;49.972;18.944;2022-11-06T03:00:20;102320.02;;;10.58;82.14
55550;BME280;41397;49.972;18.944;2022-11-06T03:03:31;102310.93;;;10.57;82.00
55550;BME280;41397;49.972;18.944;2022-11-06T03:06:37;102320.20;;;10.55;82.06
55550;BME280;41397;49.972;18.944;2022-11-06T03:09:40;102325.67;;;10.55;82.30
55550;BME280;41397;49.972;18.944;2022-11-06T03:16:25;102318.88;;;10.46;82.64
55550;BME280;41397;49.972;18.944;2022-11-06T03:19:26;102315.27;;;10.46;82.31
55550;BME280;41397;49.972;18.944;2022-11-06T03:25:55;102329.89;;;10.44;82.54
55550;BME280;41397;49.972;18.944;2022-11-06T03:29:12;102330.88;;;10.43;82.53
55550;BME280;41397;49.972;18.944;2022-11-06T03:35:40;102330.01;;;10.43;82.52
55550;BME280;41397;49.972;18.944;2022-11-06T03:38:40;102326.64;;;10.38;82.42
55550;BME280;41397;49.972;18.944;2022-11-06T03:41:53;102321.42;;;10.33;82.72
55550;BME280;41397;49.972;18.944;2022-11-06T03:45:05;102338.99;;;10.29;82.92
55550;BME280;41397;49.972;18.944;2022-11-06T03:48:17;102343.57;;;10.29;82.73
55550;BME280;41397;49.972;18.944;2022-11-06T03:51:25;102347.34;;;10.26;82.71
55550;BME280;41397;49.972;18.944;2022-11-06T03:54:39;102351.19;;;10.22;83.04
55550;BME280;41397;49.972;18.944;2022-11-06T03:57:55;102344.03;;;10.19;83.09
55550;BME280;41397;49.972;18.944;2022-11-06T04:00:53;102351.28;;;10.20;82.94
55550;BME280;41397;49.972;18.944;2022-11-06T04:04:01;102353.28;;;10.17;82.65
55550;BME280;41397;49.972;18.944;2022-11-06T04:07:13;102344.38;;;10.13;82.60
55550;BME280;41397;49.972;18.944;2022-11-06T04:10:15;102341.72;;;10.12;82.87
55550;BME280;41397;49.972;18.944;2022-11-06T04:13:35;102351.60;;;10.14;82.82
55550;BME280;41397;49.972;18.944;2022-11-06T04:16:55;102356.37;;;10.11;82.77
55550;BME280;41397;49.972;18.944;2022-11-06T04:20:01;102359.27;;;10.08;82.94
55550;BME280;41397;49.972;18.944;2022-11-06T04:26:24;102357.75;;;10.02;82.46
55550;BME280;41397;49.972;18.944;2022-11-06T04:29:52;102357.75;;;10.02;82.74
55550;BME280;41397;49.972;18.944;2022-11-06T04:33:01;102365.15;;;10.00;82.55
55550;BME280;41397;49.972;18.944;2022-11-06T04:36:18;102367.17;;;9.96;82.59
55550;BME280;41397;49.972;18.944;2022-11-06T04:39:28;102360.96;;;9.93;82.50
55550;BME280;41397;49.972;18.944;2022-11-06T04:45:49;102373.85;;;9.91;82.77
55550;BME280;41397;49.972;18.944;2022-11-06T04:48:53;102371.19;;;9.89;82.58
55550;BME280;41397;49.972;18.944;2022-11-06T04:51:56;102362.19;;;9.87;82.79
55550;BME280;41397;49.972;18.944;2022-11-06T04:54:58;102364.91;;;9.87;82.35
55550;BME280;41397;49.972;18.944;2022-11-06T04:57:59;102361.41;;;9.85;82.58
55550;BME280;41397;49.972;18.944;2022-11-06T05:01:00;102369.77;;;9.82;82.21
55550;BME280;41397;49.972;18.944;2022-11-06T05:04:01;102372.81;;;9.76;81.96
55550;BME280;41397;49.972;18.944;2022-11-06T05:07:02;102361.34;;;9.69;82.00
55550;BME280;41397;49.972;18.944;2022-11-06T05:10:04;102367.13;;;9.63;82.20
55550;BME280;41397;49.972;18.944;2022-11-06T05:13:08;102376.60;;;9.56;82.09
55550;BME280;41397;49.972;18.944;2022-11-06T05:16:10;102369.38;;;9.55;82.09
55550;BME280;41397;49.972;18.944;2022-11-06T05:19:11;102375.15;;;9.49;81.89
55550;BME280;41397;49.972;18.944;2022-11-06T05:22:12;102380.94;;;9.43;81.92
55550;BME280;41397;49.972;18.944;2022-11-06T05:25:30;102385.58;;;9.41;81.81
55550;BME280;41397;49.972;18.944;2022-11-06T05:28:34;102376.67;;;9.37;81.94
55550;BME280;41397;49.972;18.944;2022-11-06T05:31:36;102384.15;;;9.33;81.84
55550;BME280;41397;49.972;18.944;2022-11-06T05:34:37;102377.94;;;9.30;81.69
55550;BME280;41397;49.972;18.944;2022-11-06T05:37:38;102383.22;;;9.16;81.78
55550;BME280;41397;49.972;18.944;2022-11-06T05:40:43;102390.70;;;9.12;81.90
55550;BME280;41397;49.972;18.944;2022-11-06T05:43:44;102394.11;;;8.98;82.08
55550;BME280;41397;49.972;18.944;2022-11-06T05:46:45;102397.36;;;8.87;82.62
55550;BME280;41397;49.972;18.944;2022-11-06T05:49:46;102397.87;;;8.96;82.61
55550;BME280;41397;49.972;18.944;2022-11-06T05:52:50;102407.59;;;9.01;82.53
55550;BME280;41397;49.972;18.944;2022-11-06T05:55:52;102413.87;;;9.03;82.27
55550;BME280;41397;49.972;18.944;2022-11-06T05:58:53;102408.27;;;9.06;82.45
55550;BME280;41397;49.972;18.944;2022-11-06T06:01:54;102412.91;;;9.04;82.46
55550;BME280;41397;49.972;18.944;2022-11-06T06:04:58;102413.52;;;8.92;82.61
55550;BME280;41397;49.972;18.944;2022-11-06T06:08:00;102413.02;;;8.84;82.75
55550;BME280;41397;49.972;18.944;2022-11-06T06:11:05;102417.70;;;8.80;82.97
55550;BME280;41397;49.972;18.944;2022-11-06T06:14:07;102407.84;;;8.78;82.49
55550;BME280;41397;49.972;18.944;2022-11-06T06:17:08;102409.77;;;8.76;82.91
55550;BME280;41397;49.972;18.944;2022-11-06T06:20:10;102399.73;;;8.76;83.21
55550;BME280;41397;49.972;18.944;2022-11-06T06:23:11;102405.98;;;8.78;83.32
55550;BME280;41397;49.972;18.944;2022-11-06T06:26:12;102405.70;;;8.84;83.17
55550;BME280;41397;49.972;18.944;2022-11-06T06:29:15;102410.40;;;8.81;83.29
55550;BME280;41397;49.972;18.944;2022-11-06T06:32:16;102408.50;;;8.83;83.31
55550;BME280;41397;49.972;18.944;2022-11-06T06:35:17;102416.82;;;8.80;83.02
55550;BME280;41397;49.972;18.944;2022-11-06T06:38:18;102408.44;;;8.84;83.12
55550;BME280;41397;49.972;18.944;2022-11-06T06:41:23;102416.37;;;8.89;83.01
55550;BME280;41397;49.972;18.944;2022-11-06T06:44:24;102415.19;;;8.95;82.87
55550;BME280;41397;49.972;18.944;2022-11-06T06:47:25;102427.80;;;8.97;83.06
55550;BME280;41397;49.972;18.944;2022-11-06T06:50:26;102424.87;;;8.83;83.34
55550;BME280;41397;49.972;18.944;2022-11-06T06:53:30;102428.41;;;8.85;83.69
55550;BME280;41397;49.972;18.944;2022-11-06T06:56:32;102419.19;;;8.87;83.54
55550;BME280;41397;49.972;18.944;2022-11-06T06:59:33;102429.49;;;9.00;83.68
55550;BME280;41397;49.972;18.944;2022-11-06T07:02:35;102425.16;;;8.96;83.53
55550;BME280;41397;49.972;18.944;2022-11-06T07:05:39;102429.27;;;9.04;83.35
55550;BME280;41397;49.972;18.944;2022-11-06T07:08:41;102426.24;;;9.10;82.85
55550;BME280;41397;49.972;18.944;2022-11-06T07:11:42;102416.06;;;9.14;82.84
55550;BME280;41397;49.972;18.944;2022-11-06T07:14:43;102415.04;;;9.17;82.54
55550;BME280;41397;49.972;18.944;2022-11-06T07:17:47;102425.87;;;9.18;82.58
55550;BME280;41397;49.972;18.944;2022-11-06T07:20:48;102420.18;;;9.23;82.42
55550;BME280;41397;49.972;18.944;2022-11-06T07:23:49;102423.06;;;9.20;82.14
55550;BME280;41397;49.972;18.944;2022-11-06T07:26:51;102430.81;;;9.10;82.60
55550;BME280;41397;49.972;18.944;2022-11-06T07:29:55;102427.41;;;9.05;82.56
55550;BME280;41397;49.972;18.944;2022-11-06T07:33:02;102418.20;;;9.07;82.69
55550;BME280;41397;49.972;18.944;2022-11-06T07:36:11;102423.59;;;9.09;82.67
55550;BME280;41397;49.972;18.944;2022-11-06T07:39:12;102420.88;;;9.09;82.79
55550;BME280;41397;49.972;18.944;2022-11-06T07:42:14;102422.84;;;9.05;82.70
55550;BME280;41397;49.972;18.944;2022-11-06T07:45:15;102423.59;;;9.09;82.53
55550;BME280;41397;49.972;18.944;2022-11-06T07:48:16;102418.20;;;9.07;82.25
55550;BME280;41397;49.972;18.944;2022-11-06T07:51:17;102422.94;;;9.04;82.95
55550;BME280;41397;49.972;18.944;2022-11-06T07:54:18;102414.97;;;8.99;82.61
55550;BME280;41397;49.972;18.944;2022-11-06T07:57:20;102412.09;;;9.02;82.64
55550;BME280;41397;49.972;18.944;2022-11-06T08:00:21;102414.82;;;9.02;82.74
55550;BME280;41397;49.972;18.944;2022-11-06T08:03:23;102415.78;;;9.01;82.81
55550;BME280;41397;49.972;18.944;2022-11-06T08:06:25;102415.19;;;8.95;83.40
55550;BME280;41397;49.972;18.944;2022-11-06T08:09:26;102421.61;;;8.94;83.03
55550;BME280;41397;49.972;18.944;2022-11-06T08:12:27;102416.77;;;8.81;83.63
55550;BME280;41397;49.972;18.944;2022-11-06T08:15:28;102415.64;;;8.85;83.76
55550;BME280;41397;49.972;18.944;2022-11-06T08:18:30;102415.59;;;8.87;83.61
55550;BME280;41397;49.972;18.944;2022-11-06T08:21:31;102422.44;;;8.96;83.39
55550;BME280;41397;49.972;18.944;2022-11-06T08:24:32;102413.95;;;8.83;83.10
55550;BME280;41397;49.972;18.944;2022-11-06T08:27:33;102413.80;;;8.86;83.63
55550;BME280;41397;49.972;18.944;2022-11-06T08:30:36;102416.53;;;8.86;83.40
55550;BME280;41397;49.972;18.944;2022-11-06T08:33:37;102406.73;;;8.82;83.58
55550;BME280;41397;49.972;18.944;2022-11-06T08:36:44;102411.83;;;8.89;84.04
55550;BME280;41397;49.972;18.944;2022-11-06T08:39:45;102404.73;;;8.85;84.10
55550;BME280;41397;49.972;18.944;2022-11-06T08:42:46;102399.13;;;8.88;84.16
55550;BME280;41397;49.972;18.944;2022-11-06T08:45:48;102396.77;;;8.81;83.71
55550;BME280;41397;49.972;18.944;2022-11-06T08:48:49;102411.22;;;8.83;84.14
55550;BME280;41397;49.972;18.944;2022-11-06T08:51:50;102410.91;;;8.89;83.94
55550;BME280;41397;49.972;18.944;2022-11-06T08:54:52;102407.09;;;8.93;83.82
55550;BME280;41397;49.972;18.944;2022-11-06T08:57:54;102408.47;;;9.02;83.76
55550;BME280;41397;49.972;18.944;2022-11-06T09:00:55;102407.95;;;9.13;84.02
55550;BME280;41397;49.972;18.944;2022-11-06T09:03:56;102397.84;;;9.15;84.56
55550;BME280;41397;49.972;18.944;2022-11-06T09:07:00;102403.64;;;9.26;84.16
55550;BME280;41397;49.972;18.944;2022-11-06T09:10:02;102403.00;;;9.38;83.68
55550;BME280;41397;49.972;18.944;2022-11-06T09:13:03;102412.66;;;9.45;84.05
55550;BME280;41397;49.972;18.944;2022-11-06T09:16:05;102413.16;;;9.53;83.85
55550;BME280;41397;49.972;18.944;2022-11-06T09:19:08;102415.23;;;9.48;84.38
55550;BME280;41397;49.972;18.944;2022-11-06T09:22:09;102412.66;;;9.63;85.16
55550;BME280;41397;49.972;18.944;2022-11-06T09:25:11;102407.46;;;9.75;85.11
55550;BME280;41397;49.972;18.944;2022-11-06T09:28:13;102403.28;;;9.86;84.93
55550;BME280;41397;49.972;18.944;2022-11-06T09:31:16;102403.65;;;9.95;84.74
55550;BME280;41397;49.972;18.944;2022-11-06T09:34:18;102399.98;;;9.96;83.60
55550;BME280;41397;49.972;18.944;2022-11-06T09:37:19;102402.20;;;10.06;84.14
55550;BME280;41397;49.972;18.944;2022-11-06T09:46:46;102395.89;;;10.38;83.24
55550;BME280;41397;49.972;18.944;2022-11-06T09:49:53;102381.37;;;10.54;83.14
55550;BME280;41397;49.972;18.944;2022-11-06T09:53:00;102380.34;;;10.72;83.17
55550;BME280;41397;49.972;18.944;2022-11-06T09:56:10;102368.29;;;11.06;82.36
55550;BME280;41397;49.972;18.944;2022-11-06T09:59:15;102370.66;;;11.13;80.67
55550;BME280;41397;49.972;18.944;2022-11-06T10:02:28;102372.74;;;11.39;79.99
55550;BME280;41397;49.972;18.944;2022-11-06T10:05:34;102369.96;;;11.55;79.24
55550;BME280;41397;49.972;18.944;2022-11-06T10:08:36;102368.13;;;11.70;78.62
55550;BME280;41397;49.972;18.944;2022-11-06T10:11:49;102361.66;;;11.87;78.62
55550;BME280;41397;49.972;18.944;2022-11-06T10:15:00;102363.94;;;12.09;77.52
55550;BME280;41397;49.972;18.944;2022-11-06T10:21:24;102356.98;;;12.17;76.65
55550;BME280;41397;49.972;18.944;2022-11-06T10:31:23;102344.32;;;12.43;75.55
55550;BME280;41397;49.972;18.944;2022-11-06T10:34:12;102347.23;;;12.55;75.26
55550;BME280;41397;49.972;18.944;2022-11-06T10:40:31;102336.51;;;12.23;74.52
55550;BME280;41397;49.972;18.944;2022-11-06T10:46:53;102338.62;;;12.47;73.99
55550;BME280;41397;49.972;18.944;2022-11-06T10:50:02;102334.83;;;12.35;74.46
55550;BME280;41397;49.972;18.944;2022-11-06T10:53:17;102328.55;;;12.33;74.63
55550;BME280;41397;49.972;18.944;2022-11-06T10:59:38;102313.98;;;12.18;75.22
55550;BME280;41397;49.972;18.944;2022-11-06T11:02:50;102319.05;;;12.24;74.86
55550;BME280;41397;49.972;18.944;2022-11-06T11:05:51;102306.23;;;11.96;75.13
55550;BME280;41397;49.972;18.944;2022-11-06T11:08:54;102309.22;;;11.77;76.13
55550;BME280;41397;49.972;18.944;2022-11-06T11:11:57;102316.45;;;11.64;76.90
55550;BME280;41397;49.972;18.944;2022-11-06T11:15:09;102308.03;;;11.67;76.74
55550;BME280;41397;49.972;18.944;2022-11-06T11:21:31;102294.52;;;11.49;76.98
55550;BME280;41397;49.972;18.944;2022-11-06T11:24:34;102286.17;;;11.51;77.03
55550;BME280;41397;49.972;18.944;2022-11-06T11:27:42;102289.30;;;11.45;77.52
55550;BME280;41397;49.972;18.944;2022-11-06T11:30:51;102288.17;;;11.19;78.67
55550;BME280;41397;49.972;18.944;2022-11-06T11:33:55;102275.81;;;11.56;78.10
55550;BME280;41397;49.972;18.944;2022-11-06T11:37:19;102280.55;;;11.83;77.57
55550;BME280;41397;49.972;18.944;2022-11-06T11:43:27;102260.79;;;11.92;76.10
55550;BME280;41397;49.972;18.944;2022-11-06T11:46:30;102268.14;;;11.91;76.11
55550;BME280;41397;49.972;18.944;2022-11-06T11:49:33;102270.38;;;11.85;76.45
55550;BME280;41397;49.972;18.944;2022-11-06T11:52:37;102269.73;;;11.95;76.29
55550;BME280;41397;49.972;18.944;2022-11-06T11:55:42;102268.14;;;11.91;76.47
55550;BME280;41397;49.972;18.944;2022-11-06T11:58:52;102263.35;;;12.09;76.31
55550;BME280;41397;49.972;18.944;2022-11-06T12:01:57;102257.68;;;11.98;76.32
55550;BME280;41397;49.972;18.944;2022-11-06T12:05:10;102265.30;;;12.07;76.39
55550;BME280;41397;49.972;18.944;2022-11-06T12:08:24;102260.28;;;12.14;76.24
55550;BME280;41397;49.972;18.944;2022-11-06T12:11:28;102257.54;;;12.14;76.33
55550;BME280;41397;49.972;18.944;2022-11-06T12:14:32;102254.80;;;12.14;76.46
55550;BME280;41397;49.972;18.944;2022-11-06T12:17:36;102252.55;;;12.20;76.57
55550;BME280;41397;49.972;18.944;2022-11-06T12:24:06;102238.98;;;11.90;77.24
55550;BME280;41397;49.972;18.944;2022-11-06T12:27:16;102238.17;;;12.17;76.88
55550;BME280;41397;49.972;18.944;2022-11-06T12:30:22;102227.87;;;12.20;76.40
55550;BME280;41397;49.972;18.944;2022-11-06T12:33:27;102223.05;;;12.24;75.89
55550;BME280;41397;49.972;18.944;2022-11-06T12:36:31;102231.02;;;12.14;75.86
55550;BME280;41397;49.972;18.944;2022-11-06T12:39:43;102239.16;;;12.02;76.46
55550;BME280;41397;49.972;18.944;2022-11-06T12:55:53;102227.80;;;11.93;78.16
55550;BME280;41397;49.972;18.944;2022-11-06T12:59:04;102218.18;;;12.15;77.71
55550;BME280;41397;49.972;18.944;2022-11-06T13:28:20;102198.90;;;12.02;76.46
55550;BME280;41397;49.972;18.944;2022-11-06T13:31:17;102196.58;;;11.96;76.14
55550;BME280;41397;49.972;18.944;2022-11-06T13:34:24;102185.20;;;12.02;75.93
55550;BME280;41397;49.972;18.944;2022-11-06T13:37:36;102181.13;;;11.95;75.76
55550;BME280;41397;49.972;18.944;2022-11-06T13:40:42;102183.48;;;11.87;76.29
55550;BME280;41397;49.972;18.944;2022-11-06T13:43:48;102184.42;;;11.71;76.82
55550;BME280;41397;49.972;18.944;2022-11-06T13:47:00;102183.73;;;11.53;77.75
55550;BME280;41397;49.972;18.944;2022-11-06T13:53:25;102176.69;;;11.64;77.91
55550;BME280;41397;49.972;18.944;2022-11-06T14:03:10;102172.67;;;11.69;77.17
55550;BME280;41397;49.972;18.944;2022-11-06T14:09:25;102165.15;;;11.44;77.94
55550;BME280;41397;49.972;18.944;2022-11-06T14:12:28;102158.00;;;11.42;78.15
55550;BME280;41397;49.972;18.944;2022-11-06T14:15:38;102158.48;;;11.48;78.26
55550;BME280;41397;49.972;18.944;2022-11-06T14:18:42;102153.00;;;11.48;78.01
55550;BME280;41397;49.972;18.944;2022-11-06T14:24:52;102157.62;;;11.33;78.52
55550;BME280;41397;49.972;18.944;2022-11-06T14:28:02;102159.56;;;11.31;78.07
55550;BME280;41397;49.972;18.944;2022-11-06T14:31:06;102161.90;;;11.09;78.40
55550;BME280;41397;49.972;18.944;2022-11-06T14:34:34;102155.34;;;11.11;78.69
55550;BME280;41397;49.972;18.944;2022-11-06T14:40:31;102170.23;;;11.22;78.41
55550;BME280;41397;49.972;18.944;2022-11-06T14:43:35;102167.38;;;11.23;78.19
55550;BME280;41397;49.972;18.944;2022-11-06T14:46:37;102153.09;;;11.18;78.52
55550;BME280;41397;49.972;18.944;2022-11-06T14:49:42;102158.48;;;11.20;78.32
55550;BME280;41397;49.972;18.944;2022-11-06T14:52:52;102150.27;;;11.20;78.42
55550;BME280;41397;49.972;18.944;2022-11-06T14:56:02;102154.36;;;11.13;78.53
55550;BME280;41397;49.972;18.944;2022-11-06T15:02:22;102147.92;;;11.14;78.81
55550;BME280;41397;49.972;18.944;2022-11-06T15:05:26;102157.96;;;10.99;79.44
55550;BME280;41397;49.972;18.944;2022-11-06T15:11:49;102149.52;;;10.87;80.18
55550;BME280;41397;49.972;18.944;2022-11-06T15:14:52;102142.35;;;10.71;80.49
55550;BME280;41397;49.972;18.944;2022-11-06T15:17:57;102134.37;;;10.82;80.42
55550;BME280;41397;49.972;18.944;2022-11-06T15:21:01;102134.17;;;10.85;80.39
55550;BME280;41397;49.972;18.944;2022-11-06T15:24:16;102133.30;;;10.84;80.21
55550;BME280;41397;49.972;18.944;2022-11-06T15:27:20;102134.29;;;10.83;80.56
55550;BME280;41397;49.972;18.944;2022-11-06T15:30:24;102125.36;;;10.80;80.21
55550;BME280;41397;49.972;18.944;2022-11-06T15:33:33;102120.08;;;10.77;80.72
55550;BME280;41397;49.972;18.944;2022-11-06T15:36:40;102120.19;;;10.75;80.86
55550;BME280;41397;49.972;18.944;2022-11-06T15:39:52;102115.41;;;10.79;80.78
55550;BME280;41397;49.972;18.944;2022-11-06T15:42:56;102104.24;;;10.68;80.65
55550;BME280;41397;49.972;18.944;2022-11-06T15:49:17;102116.52;;;10.60;81.11
55550;BME280;41397;49.972;18.944;2022-11-06T15:52:19;102107.02;;;10.52;81.63
55550;BME280;41397;49.972;18.944;2022-11-06T15:58:35;102106.80;;;10.40;81.86
55550;BME280;41397;49.972;18.944;2022-11-06T16:01:37;102103.95;;;10.42;82.25
55550;BME280;41397;49.972;18.944;2022-11-06T16:04:39;102106.00;;;10.38;82.42
55550;BME280;41397;49.972;18.944;2022-11-06T16:07:47;102111.46;;;10.38;82.67
55550;BME280;41397;49.972;18.944;2022-11-06T16:10:49;102099.65;;;10.38;82.90
55550;BME280;41397;49.972;18.944;2022-11-06T16:13:51;102104.33;;;10.36;82.94
55550;BME280;41397;49.972;18.944;2022-11-06T16:16:54;102106.10;;;10.21;83.39
55550;BME280;41397;49.972;18.944;2022-11-06T16:19:57;102111.83;;;10.16;83.96
55550;BME280;41397;49.972;18.944;2022-11-06T16:23:04;102106.04;;;10.07;84.30
55550;BME280;41397;49.972;18.944;2022-11-06T16:26:08;102097.92;;;10.05;84.74
55550;BME280;41397;49.972;18.944;2022-11-06T16:32:29;102108.23;;;9.84;85.18
55550;BME280;41397;49.972;18.944;2022-11-06T16:35:36;102104.27;;;9.90;85.31
55550;BME280;41397;49.972;18.944;2022-11-06T16:38:42;102103.57;;;10.02;84.85
55550;BME280;41397;49.972;18.944;2022-11-06T16:51:29;102098.80;;;9.90;84.50
55550;BME280;41397;49.972;18.944;2022-11-06T16:54:33;102097.16;;;9.71;84.57
55550;BME280;41397;49.972;18.944;2022-11-06T16:57:45;102103.92;;;9.64;84.75
55550;BME280;41397;49.972;18.944;2022-11-06T17:04:18;102096.34;;;9.53;84.71
55550;BME280;41397;49.972;18.944;2022-11-06T17:07:21;102092.98;;;9.48;84.65
55550;BME280;41397;49.972;18.944;2022-11-06T17:13:33;102082.17;;;9.47;84.69
55550;BME280;41397;49.972;18.944;2022-11-06T17:19:47;102083.29;;;9.43;84.54
55550;BME280;41397;49.972;18.944;2022-11-06T17:22:48;102079.34;;;9.48;84.21
55550;BME280;41397;49.972;18.944;2022-11-06T17:25:53;102080.67;;;9.41;84.39
55550;BME280;41397;49.972;18.944;2022-11-06T17:28:57;102081.61;;;9.40;84.42
55550;BME280;41397;49.972;18.944;2022-11-06T17:31:59;102085.37;;;9.22;85.08
55550;BME280;41397;49.972;18.944;2022-11-06T17:35:06;102086.09;;;9.25;85.03
55550;BME280;41397;49.972;18.944;2022-11-06T17:38:11;102067.45;;;9.33;84.58
55550;BME280;41397;49.972;18.944;2022-11-06T17:41:14;102073.98;;;9.47;84.36
55550;BME280;41397;49.972;18.944;2022-11-06T17:44:27;102070.06;;;9.35;84.76
55550;BME280;41397;49.972;18.944;2022-11-06T17:47:28;102070.80;;;9.39;85.03
55550;BME280;41397;49.972;18.944;2022-11-06T17:50:32;102076.71;;;9.47;84.69
55550;BME280;41397;49.972;18.944;2022-11-06T17:53:51;102071.14;;;9.48;84.68
55550;BME280;41397;49.972;18.944;2022-11-06T17:56:55;102062.32;;;9.43;84.87
55550;BME280;41397;49.972;18.944;2022-11-06T17:59:57;102063.74;;;9.34;85.37
55550;BME280;41397;49.972;18.944;2022-11-06T18:02:58;102059.15;;;9.35;85.20
55550;BME280;41397;49.972;18.944;2022-11-06T18:06:00;102057.58;;;9.31;85.50
55550;BME280;41397;49.972;18.944;2022-11-06T18:09:03;102064.72;;;9.33;85.71
55550;BME280;41397;49.972;18.944;2022-11-06T18:12:06;102051.21;;;9.46;85.67
55550;BME280;41397;49.972;18.944;2022-11-06T18:15:08;102061.45;;;9.43;85.53
55550;BME280;41397;49.972;18.944;2022-11-06T18:18:10;102056.87;;;9.43;85.69
55550;BME280;41397;49.972;18.944;2022-11-06T18:21:11;102063.30;;;9.42;85.37
55550;BME280;41397;49.972;18.944;2022-11-06T18:24:13;102058.47;;;9.47;85.29
55550;BME280;41397;49.972;18.944;2022-11-06T18:27:14;102053.87;;;9.32;85.90
55550;BME280;41397;49.972;18.944;2022-11-06T18:30:15;102058.45;;;9.31;86.12
55550;BME280;41397;49.972;18.944;2022-11-06T18:33:17;102054.67;;;9.34;86.55
55550;BME280;41397;49.972;18.944;2022-11-06T18:36:18;102053.19;;;9.44;86.25
55550;BME280;41397;49.972;18.944;2022-11-06T18:39:20;102047.45;;;9.49;85.58
55550;BME280;41397;49.972;18.944;2022-11-06T18:42:23;102044.63;;;9.50;85.83
55550;BME280;41397;49.972;18.944;2022-11-06T18:45:24;102039.80;;;9.55;85.62
55550;BME280;41397;49.972;18.944;2022-11-06T18:48:25;102041.98;;;9.65;85.34